Time;durP1;ratioP1;P1;durP2;ratioP2;P2;SDS_P1;SDS_P2;PMS_P1;PMS_P2;Temp;Humidity;BMP_temperature;BMP_pressure;BME280_temperature;BME280_humidity;BME280_pressure;Samples;Min_cycle;Max_cycle;Signal;HPM_P1;HPM_P2
2021/12/22 00:00:13;;;;;;;18.10;6.60;;;;;;;-2.27;64.50;99965.89;1783382;80;21040;-81
2021/12/22 00:02:48;;;;;;;11.93;5.12;;;;;;;-2.29;65.08;99958.97;1750673;81;21005;-80
2021/12/22 00:05:23;;;;;;;13.95;4.92;;;;;;;-2.28;65.24;99962.00;1782737;81;21035;-81
2021/12/22 00:07:50;;;;;;;12.73;4.20;;;;;;;-2.26;64.90;99961.25;1783657;80;21001;-81
2021/12/22 00:10:18;;;;;;;10.30;4.25;;;;;;;-2.23;64.36;99961.77;1783191;81;21047;-81
2021/12/22 00:12:46;;;;;;;11.85;4.67;;;;;;;-2.23;64.16;99970.30;1783452;80;21010;-81
2021/12/22 00:15:13;;;;;;;10.45;4.03;;;;;;;-2.20;63.77;99964.03;1783514;80;21150;-82
2021/12/22 00:17:40;;;;;;;9.65;4.22;;;;;;;-2.21;63.70;99964.86;1759853;80;21003;-80
2021/12/22 00:20:10;;;;;;;10.60;4.15;;;;;;;-2.17;63.74;99962.42;1747652;82;21014;-81
2021/12/22 00:22:38;;;;;;;9.13;4.03;;;;;;;-2.13;63.50;99966.83;1783027;80;21033;-81
2021/12/22 00:25:05;;;;;;;7.55;3.65;;;;;;;-2.13;63.50;99965.17;1755638;81;21050;-81
2021/12/22 00:27:32;;;;;;;8.63;4.12;;;;;;;-2.09;63.37;99959.77;1744375;80;21047;-81
2021/12/22 00:29:59;;;;;;;8.90;3.10;;;;;;;-2.07;63.30;99961.59;1752961;82;21090;-80
2021/12/22 00:32:28;;;;;;;6.92;3.37;;;;;;;-2.07;63.18;99967.06;1755777;81;20973;-81
2021/12/22 00:34:56;;;;;;;13.22;3.20;;;;;;;-2.04;63.31;99965.92;1765468;81;21051;-81
2021/12/22 00:37:28;;;;;;;7.03;3.05;;;;;;;-2.03;63.19;99971.09;1764151;81;21048;-81
2021/12/22 00:39:56;;;;;;;11.30;3.62;;;;;;;-2.00;63.18;99972.88;1782938;80;21029;-82
2021/12/22 00:42:24;;;;;;;5.53;2.25;;;;;;;-1.98;63.22;99978.05;1783476;80;20947;-81
2021/12/22 00:44:54;;;;;;;6.15;2.87;;;;;;;-1.96;62.96;99984.93;1783350;80;21009;-81
2021/12/22 00:47:24;;;;;;;6.40;2.58;;;;;;;-1.98;62.89;99981.45;1779855;81;21075;-81
2021/12/22 00:49:51;;;;;;;9.85;3.20;;;;;;;-1.93;62.97;99985.45;1740328;81;21029;-79
2021/12/22 00:52:18;;;;;;;6.25;3.05;;;;;;;-1.93;63.21;99986.72;1741880;81;21500;-81
2021/12/22 00:54:44;;;;;;;6.08;3.05;;;;;;;-1.92;63.24;99985.52;1774466;81;20952;-80
2021/12/22 00:57:12;;;;;;;6.65;3.08;;;;;;;-1.90;63.27;99989.41;1781286;79;21035;-82
2021/12/22 00:59:38;;;;;;;5.55;2.72;;;;;;;-1.91;63.04;99987.27;1767806;80;20992;-80
2021/12/22 01:02:08;;;;;;;8.78;3.10;;;;;;;-1.91;63.24;99983.45;1765587;80;20991;-81
2021/12/22 01:04:35;;;;;;;8.08;3.05;;;;;;;-1.90;62.92;99991.54;1752517;81;21039;-80
2021/12/22 01:07:03;;;;;;;6.28;2.80;;;;;;;-1.86;62.99;99992.13;1782679;80;21022;-80
2021/12/22 01:09:30;;;;;;;15.45;3.77;;;;;;;-1.85;62.93;99991.71;1740318;81;21036;-81
2021/12/22 01:11:56;;;;;;;7.62;3.12;;;;;;;-1.85;63.17;99995.16;1760669;82;21035;-80
2021/12/22 01:14:25;;;;;;;6.28;2.60;;;;;;;-1.85;63.25;99994.26;1760359;81;21240;-81
2021/12/22 01:16:58;;;;;;;9.83;3.70;;;;;;;-1.85;63.21;99986.61;1760519;81;21035;-80
2021/12/22 01:19:30;;;;;;;6.40;2.87;;;;;;;-1.86;63.56;99988.30;1759549;82;21212;-81
2021/12/22 01:22:01;;;;;;;7.40;3.27;;;;;;;-1.86;63.64;99989.98;1755606;82;21848;-83
2021/12/22 01:24:33;;;;;;;7.30;3.47;;;;;;;-1.85;63.60;99990.44;1759144;81;21010;-80
2021/12/22 01:27:05;;;;;;;8.35;3.20;;;;;;;-1.86;63.65;99987.44;1735100;82;21007;-80
2021/12/22 01:29:26;;;;;;;8.48;3.42;;;;;;;-1.88;63.76;99991.61;1759191;82;21124;-80
2021/12/22 01:31:56;;;;;;;8.85;3.35;;;;;;;-1.89;63.79;99980.93;1757819;81;21539;-79
2021/12/22 01:34:25;;;;;;;8.68;3.55;;;;;;;-1.88;63.74;99976.31;1738871;82;21011;-81
2021/12/22 01:36:51;;;;;;;10.10;3.95;;;;;;;-1.88;63.61;99979.72;1759111;82;21090;-80
2021/12/22 01:39:18;;;;;;;9.40;3.60;;;;;;;-1.91;63.70;99968.53;1760647;81;20995;-81
2021/12/22 01:41:45;;;;;;;9.73;3.25;;;;;;;-1.89;63.55;99974.18;1742727;81;21023;-79
2021/12/22 01:44:23;;;;;;;10.00;4.30;;;;;;;-1.88;63.56;99968.67;1730465;83;21006;-80
2021/12/22 01:49:50;;;;;;;8.25;3.85;;;;;;;-1.91;64.18;99967.26;1781260;80;21039;-80
2021/12/22 01:52:21;;;;;;;7.15;3.65;;;;;;;-1.89;63.94;99960.16;1725410;82;20968;-80
2021/12/22 01:55:05;;;;;;;7.87;3.87;;;;;;;-1.89;64.47;99956.34;1760391;82;21003;-81
2021/12/22 01:57:34;;;;;;;7.70;3.12;;;;;;;-1.90;64.13;99953.31;1760470;81;20992;-80
2021/12/22 02:00:02;;;;;;;11.85;3.52;;;;;;;-1.89;64.56;99955.44;1760741;81;20964;-81
2021/12/22 02:02:29;;;;;;;8.30;3.12;;;;;;;-1.86;63.99;99960.27;1754048;82;20961;-81
2021/12/22 02:04:56;;;;;;;8.60;4.03;;;;;;;-1.89;64.69;99956.34;1760706;82;20970;-81
2021/12/22 02:07:24;;;;;;;9.63;3.85;;;;;;;-1.88;64.56;99954.65;1760400;82;20988;-80
2021/12/22 02:10:04;;;;;;;9.45;3.85;;;;;;;-1.87;64.90;99952.55;1760696;81;20999;-80
2021/12/22 02:12:24;;;;;;;11.80;4.12;;;;;;;-1.87;64.51;99955.09;1758645;82;21150;-81
2021/12/22 02:14:50;;;;;;;7.08;3.47;;;;;;;-1.91;64.73;99944.32;1757407;82;21040;-80
2021/12/22 02:17:17;;;;;;;10.13;4.03;;;;;;;-1.88;64.33;99946.59;1759927;82;21044;-81
2021/12/22 02:19:47;;;;;;;10.00;4.00;;;;;;;-1.88;64.87;99947.00;1781942;80;21028;-80
2021/12/22 02:22:16;;;;;;;11.60;3.67;;;;;;;-1.91;64.80;99960.51;1727305;82;21078;-80
2021/12/22 02:24:58;;;;;;;14.87;6.08;;;;;;;-1.90;64.63;99956.27;1767426;81;21540;-81
2021/12/22 02:27:39;;;;;;;21.23;7.78;;;;;;;-1.90;65.06;99952.03;1756894;80;21090;-80
2021/12/22 02:29:59;;;;;;;11.00;5.55;;;;;;;-1.87;64.51;99962.74;1755939;82;21073;-80
2021/12/22 02:33:20;;;;;;;12.50;4.45;;;;;;;-1.86;65.31;99962.81;1759981;82;21015;-81
2021/12/22 02:34:52;;;;;;;12.15;4.97;;;;;;;-1.82;65.42;99959.56;1745613;82;21012;-80
2021/12/22 02:37:24;;;;;;;11.93;4.62;;;;;;;-1.82;64.98;99959.56;1760513;81;21019;-80
2021/12/22 02:40:10;;;;;;;8.78;4.10;;;;;;;-1.81;64.77;99958.77;1757400;82;21019;-80
2021/12/22 02:42:30;;;;;;;9.63;4.65;;;;;;;-1.83;65.09;99959.12;1751300;82;21001;-79
2021/12/22 02:44:57;;;;;;;8.90;4.60;;;;;;;-1.81;64.97;99957.50;1751289;82;21053;-81
2021/12/22 02:47:26;;;;;;;11.68;5.20;;;;;;;-1.83;65.27;99959.50;1733093;82;21016;-80
2021/12/22 02:49:52;;;;;;;10.72;4.42;;;;;;;-1.88;66.18;99954.23;1759966;81;20967;-81
2021/12/22 02:52:32;;;;;;;13.93;4.92;;;;;;;-1.86;65.60;99953.89;1732383;81;20993;-80
2021/12/22 02:54:56;;;;;;;13.10;4.70;;;;;;;-1.86;65.62;99946.66;1728149;83;21032;-78
2021/12/22 02:57:30;;;;;;;14.50;4.90;;;;;;;-1.85;66.19;99942.90;1748528;82;20948;-80
2021/12/22 03:02:59;;;;;;;11.68;4.92;;;;;;;-1.82;66.14;99940.45;1707187;82;21040;-80
2021/12/22 03:05:10;;;;;;;9.85;4.17;;;;;;;-1.80;65.86;99945.20;1713401;83;21532;-79
2021/12/22 03:07:37;;;;;;;13.00;4.65;;;;;;;-1.78;66.00;99942.72;1728346;83;21033;-82
2021/12/22 03:10:14;;;;;;;11.28;5.08;;;;;;;-1.78;65.77;99940.58;1734647;82;21020;-80
2021/12/22 03:12:40;;;;;;;13.28;5.00;;;;;;;-1.80;66.24;99946.89;1722254;83;21044;-81
2021/12/22 03:15:10;;;;;;;10.15;4.97;;;;;;;-1.83;65.92;99949.30;1728925;83;21006;-80
2021/12/22 03:17:38;;;;;;;11.43;5.65;;;;;;;-1.83;66.37;99945.48;1729716;82;21005;-79
2021/12/22 03:20:10;;;;;;;12.73;5.35;;;;;;;-1.85;66.25;99945.45;1729260;83;21052;-80
2021/12/22 03:22:38;;;;;;;12.78;5.00;;;;;;;-1.84;66.90;99945.03;1714220;83;20988;-80
2021/12/22 03:25:14;;;;;;;12.13;4.83;;;;;;;-1.83;66.26;99945.48;1749587;82;20995;-80
2021/12/22 03:27:35;;;;;;;17.35;5.87;;;;;;;-1.84;66.14;99943.76;1703699;83;21161;-81
2021/12/22 03:30:05;;;;;;;10.28;4.72;;;;;;;-1.85;66.89;99947.10;1721921;83;21095;-80
2021/12/22 03:32:31;;;;;;;19.80;7.40;;;;;;;-1.88;67.50;99950.41;1716530;82;20962;-79
2021/12/22 03:35:00;;;;;;;20.60;9.05;;;;;;;-1.88;66.56;99940.22;1718837;83;21024;-81
2021/12/22 03:37:26;;;;;;;19.57;9.00;;;;;;;-1.84;66.32;99948.45;1723207;82;21052;-81
2021/12/22 03:39:53;;;;;;;22.98;9.95;;;;;;;-1.85;66.20;99947.10;1712389;83;21456;-81
2021/12/22 03:42:19;;;;;;;21.82;9.65;;;;;;;-1.80;66.14;99949.02;1712352;82;20974;-80
2021/12/22 03:44:46;;;;;;;14.50;5.80;;;;;;;-1.82;66.15;99948.51;1728949;83;21156;-81
2021/12/22 03:47:12;;;;;;;13.78;5.60;;;;;;;-1.83;66.16;99951.47;1710749;82;21048;-80
2021/12/22 03:49:39;;;;;;;16.05;5.10;;;;;;;-1.84;65.99;99945.03;1728624;83;21063;-81
2021/12/22 03:52:06;;;;;;;23.20;4.92;;;;;;;-1.82;65.91;99957.02;1754668;82;21057;-79
2021/12/22 03:54:33;;;;;;;11.35;4.15;;;;;;;-1.83;65.90;99957.84;1759418;80;20978;-80
2021/12/22 03:57:00;;;;;;;9.23;4.10;;;;;;;-1.86;66.69;99958.98;1781806;80;21021;-78
2021/12/22 03:59:27;;;;;;;10.90;4.05;;;;;;;-1.85;66.19;99957.30;1759820;82;21006;-80
2021/12/22 04:01:54;;;;;;;13.95;4.95;;;;;;;-1.86;66.26;99958.98;1740543;82;21010;-81
2021/12/22 04:04:20;;;;;;;8.35;3.90;;;;;;;-1.89;67.42;99965.26;1754698;82;20995;-80
2021/12/22 04:06:49;;;;;;;12.37;5.70;;;;;;;-1.87;66.48;99964.91;1759744;81;21038;-80
2021/12/22 04:09:18;;;;;;;15.03;5.58;;;;;;;-1.85;66.57;99968.39;1759880;81;20964;-80
2021/12/22 04:11:45;;;;;;;12.30;4.87;;;;;;;-1.85;66.67;99965.84;1760036;82;20995;-80
2021/12/22 04:14:12;;;;;;;12.13;4.42;;;;;;;-1.82;67.38;99966.35;1759744;81;20998;-81
2021/12/22 04:16:38;;;;;;;19.48;6.17;;;;;;;-1.81;67.38;99957.88;1759939;82;21039;-80
2021/12/22 04:19:05;;;;;;;17.30;5.92;;;;;;;-1.80;66.83;99955.39;1748108;82;20981;-79
2021/12/22 04:21:31;;;;;;;14.68;6.28;;;;;;;-1.82;66.94;99958.30;1751662;82;21267;-81
2021/12/22 04:23:58;;;;;;;20.45;7.22;;;;;;;-1.88;66.87;99955.52;1760077;82;21027;-80
2021/12/22 04:26:30;;;;;;;25.52;8.63;;;;;;;-1.90;66.98;99951.17;1759949;82;21000;-80
2021/12/22 04:28:56;;;;;;;21.97;7.50;;;;;;;-1.90;66.48;99958.41;1777322;81;21127;-80
2021/12/22 04:31:22;;;;;;;13.93;6.55;;;;;;;-1.95;67.59;99961.20;1751196;82;21055;-81
2021/12/22 04:33:51;;;;;;;12.70;5.53;;;;;;;-1.96;67.13;99959.45;1732828;82;21131;-81
2021/12/22 04:36:18;;;;;;;12.65;5.15;;;;;;;-1.97;66.92;99960.66;1759795;82;21026;-80
2021/12/22 04:38:44;;;;;;;12.13;4.78;;;;;;;-2.00;67.09;99969.92;1759935;81;20935;-80
2021/12/22 04:41:10;;;;;;;10.20;4.80;;;;;;;-1.99;67.24;99966.95;1745800;81;21027;-80
2021/12/22 04:43:37;;;;;;;13.30;5.12;;;;;;;-2.01;67.54;99971.13;1760401;82;21022;-80
2021/12/22 04:46:03;;;;;;;12.10;5.42;;;;;;;-2.01;67.11;99973.30;1759592;81;21139;-80
2021/12/22 04:48:35;;;;;;;13.85;5.20;;;;;;;-2.03;67.66;99967.64;1741691;82;21308;-80
2021/12/22 04:51:11;;;;;;;11.88;4.55;;;;;;;-2.02;67.49;99970.67;1746671;82;21035;-80
2021/12/22 04:53:39;;;;;;;11.55;5.33;;;;;;;-2.04;67.62;99972.30;1758022;80;21024;-79
2021/12/22 04:55:58;;;;;;;17.37;4.95;;;;;;;-1.99;66.73;99968.23;1757891;80;21035;-80
2021/12/22 04:58:24;;;;;;;11.20;4.70;;;;;;;-2.04;67.59;99972.30;1742877;82;21016;-80
2021/12/22 05:00:51;;;;;;;13.43;5.50;;;;;;;-2.02;67.54;99978.32;1736672;82;21011;-81
2021/12/22 05:03:17;;;;;;;15.65;5.30;;;;;;;-2.03;67.84;99972.36;1751839;82;21031;-81
2021/12/22 05:05:43;;;;;;;15.90;5.62;;;;;;;-2.10;68.38;99972.92;1760339;81;21036;-81
2021/12/22 05:08:10;;;;;;;12.75;5.42;;;;;;;-2.08;67.84;99983.18;1750873;82;21115;-80
2021/12/22 05:10:36;;;;;;;14.68;6.40;;;;;;;-2.10;68.01;99985.66;1781559;80;21001;-79
2021/12/22 05:13:03;;;;;;;12.10;5.70;;;;;;;-2.12;68.89;99988.55;1755243;82;21001;-80
2021/12/22 05:15:37;;;;;;;20.23;6.47;;;;;;;-2.14;68.87;99993.13;1774353;81;20952;-80
2021/12/22 05:20:26;;;;;;;20.10;5.92;;;;;;;-2.13;68.29;99999.95;1758728;82;21035;-80
2021/12/22 05:22:55;;;;;;;15.35;6.72;;;;;;;-2.15;69.39;99992.23;1751591;80;21131;-80
2021/12/22 05:25:23;;;;;;;17.50;6.47;;;;;;;-2.13;69.03;99997.40;1758898;81;21004;-80
2021/12/22 05:27:49;;;;;;;19.75;7.17;;;;;;;-2.15;69.85;100000.29;1758961;80;21057;-81
2021/12/22 05:30:16;;;;;;;12.90;6.10;;;;;;;-2.14;69.70;100000.77;1759418;81;21059;-80
2021/12/22 05:32:42;;;;;;;21.12;8.20;;;;;;;-2.13;70.26;99995.75;1757543;82;21029;-80
2021/12/22 05:35:11;;;;;;;20.05;5.53;;;;;;;-2.10;69.27;100001.36;1737749;81;21005;-80
2021/12/22 05:37:39;;;;;;;14.43;6.05;;;;;;;-2.08;69.84;100006.97;1758329;82;21107;-77
2021/12/22 05:40:08;;;;;;;27.98;6.92;;;;;;;-2.05;68.64;100000.73;1744443;81;21003;-80
2021/12/22 05:42:35;;;;;;;20.25;7.92;;;;;;;-2.03;68.57;100001.67;1756232;82;20972;-80
2021/12/22 05:45:04;;;;;;;18.05;6.60;;;;;;;-2.02;69.68;100005.08;1756775;82;20995;-79
2021/12/22 05:47:30;;;;;;;13.65;6.30;;;;;;;-2.03;69.79;100009.69;1741198;80;21803;-79
2021/12/22 05:49:57;;;;;;;20.43;7.37;;;;;;;-2.03;69.11;100008.04;1755628;82;21513;-80
2021/12/22 05:52:23;;;;;;;14.65;5.45;;;;;;;-1.99;69.93;100007.73;1728195;82;20993;-80
2021/12/22 05:54:50;;;;;;;21.60;6.47;;;;;;;-1.97;69.80;100002.32;1729427;82;21019;-80
2021/12/22 05:57:17;;;;;;;15.23;6.15;;;;;;;-1.93;70.13;100007.11;1730171;82;20991;-81
2021/12/22 05:59:44;;;;;;;22.13;7.00;;;;;;;-1.93;69.42;100014.38;1728228;82;20994;-79
2021/12/22 06:02:10;;;;;;;16.82;5.62;;;;;;;-1.94;69.77;100016.86;1728162;83;21015;-80
2021/12/22 06:04:36;;;;;;;23.90;6.22;;;;;;;-1.94;69.15;100021.54;1717479;83;21473;-79
2021/12/22 06:07:03;;;;;;;21.50;7.47;;;;;;;-1.92;69.09;100021.61;1718590;83;21023;-79
2021/12/22 06:09:30;;;;;;;14.38;6.80;;;;;;;-1.92;68.99;100030.53;1715876;82;20998;-78
2021/12/22 06:11:58;;;;;;;20.52;7.75;;;;;;;-1.90;68.78;100024.67;1689959;83;21102;-78
2021/12/22 06:14:25;;;;;;;16.25;6.03;;;;;;;-1.95;69.17;100030.39;1716624;82;21066;-78
2021/12/22 06:16:53;;;;;;;17.32;6.58;;;;;;;-1.96;68.89;100037.17;1689265;83;21025;-79
2021/12/22 06:19:21;;;;;;;20.02;6.85;;;;;;;-2.04;68.57;100053.84;1714437;83;21039;-78
2021/12/22 06:21:48;;;;;;;22.50;6.92;;;;;;;-2.08;68.50;100050.70;1707207;82;21004;-77
2021/12/22 06:24:14;;;;;;;16.85;6.20;;;;;;;-2.09;68.49;100042.58;1729417;81;21385;-78
2021/12/22 06:26:41;;;;;;;15.93;6.75;;;;;;;-2.08;68.44;100050.29;1743138;81;21023;-79
2021/12/22 06:29:07;;;;;;;24.72;8.45;;;;;;;-2.17;69.15;100057.95;1711587;82;21005;-79
2021/12/22 06:31:35;;;;;;;18.85;7.92;;;;;;;-2.17;69.08;100064.33;1712549;82;21557;-79
2021/12/22 06:34:03;;;;;;;22.05;6.90;;;;;;;-2.17;69.33;100061.77;1729818;81;20977;-77
2021/12/22 06:36:29;;;;;;;27.50;8.15;;;;;;;-2.15;69.78;100067.80;1725530;81;21008;-78
2021/12/22 06:38:56;;;;;;;18.00;6.72;;;;;;;-2.14;69.78;100064.05;1700076;83;21007;-78
2021/12/22 06:41:22;;;;;;;16.42;6.95;;;;;;;-2.12;69.43;100060.30;1724392;81;21155;-77
2021/12/22 06:43:49;;;;;;;17.25;7.42;;;;;;;-2.11;69.37;100073.49;1719332;82;21020;-79
2021/12/22 06:46:16;;;;;;;21.37;7.62;;;;;;;-2.15;69.71;100079.27;1724377;82;21062;-80
2021/12/22 06:48:42;;;;;;;23.12;6.58;;;;;;;-2.18;70.44;100086.80;1729458;82;21115;-78
2021/12/22 06:51:09;;;;;;;21.05;8.28;;;;;;;-2.20;70.66;100094.37;1731600;82;21036;-82
2021/12/22 06:53:36;;;;;;;20.88;7.37;;;;;;;-2.17;70.34;100096.17;1760446;80;20948;-81
2021/12/22 06:56:04;;;;;;;20.00;8.18;;;;;;;-2.14;70.69;100098.45;1755132;80;21025;-81
2021/12/22 06:58:37;;;;;;;17.90;7.47;;;;;;;-2.11;70.60;100104.06;1773670;79;21067;-81
2021/12/22 07:01:03;;;;;;;27.62;10.68;;;;;;;-2.10;70.16;100102.00;1777385;79;21370;-81
2021/12/22 07:03:30;;;;;;;22.67;8.30;;;;;;;-2.06;69.87;100106.41;1767946;81;21117;-79
2021/12/22 07:05:57;;;;;;;27.27;9.70;;;;;;;-2.09;69.51;100113.92;1770546;81;21023;-79
2021/12/22 07:08:24;;;;;;;22.82;8.20;;;;;;;-2.15;70.62;100109.84;1772089;79;21039;-80
2021/12/22 07:10:50;;;;;;;23.98;9.23;;;;;;;-2.16;71.21;100114.08;1773214;79;21318;-78
2021/12/22 07:13:17;;;;;;;21.95;7.15;;;;;;;-2.10;70.96;100110.51;1751262;78;21213;-81
2021/12/22 07:15:46;;;;;;;18.32;8.55;;;;;;;-2.09;70.46;100113.54;1761167;80;21060;-83
2021/12/22 07:18:14;;;;;;;19.27;8.85;;;;;;;-2.07;70.28;100114.85;1753411;80;20999;-83
2021/12/22 07:20:41;;;;;;;20.90;7.62;;;;;;;-2.06;70.37;100122.56;1764424;79;21019;-83
2021/12/22 07:23:10;;;;;;;20.75;8.68;;;;;;;-2.05;70.35;100125.98;1760752;79;21117;-83
2021/12/22 07:25:38;;;;;;;21.07;8.58;;;;;;;-2.01;69.99;100131.29;1763273;80;22136;-83
2021/12/22 07:28:07;;;;;;;22.00;8.73;;;;;;;-2.03;70.25;100133.28;1749434;79;21059;-84
2021/12/22 07:33:37;;;;;;;38.48;10.00;;;;;;;-2.00;69.96;100125.78;1748709;76;21124;-84
2021/12/22 07:36:11;;;;;;;21.90;9.28;;;;;;;-2.01;70.81;100124.02;1711520;80;21162;31
2021/12/22 07:38:49;;;;;;;20.82;8.45;;;;;;;-1.99;70.97;100127.50;1756966;80;21082;-84
2021/12/22 07:41:24;;;;;;;20.00;9.30;;;;;;;-1.92;70.26;100126.11;1758224;77;21139;31
2021/12/22 07:43:51;;;;;;;24.12;9.83;;;;;;;-1.88;70.40;100125.01;1753197;81;20995;-78
2021/12/22 07:46:17;;;;;;;48.08;14.05;;;;;;;-1.81;70.23;100123.19;1704888;83;21038;-79
2021/12/22 07:48:44;;;;;;;27.95;10.20;;;;;;;-1.72;69.63;100126.92;1704564;84;20988;-80
2021/12/22 07:51:11;;;;;;;28.32;8.63;;;;;;;-1.73;69.79;100123.89;1738666;81;21057;-78
2021/12/22 07:53:39;;;;;;;31.60;10.70;;;;;;;-1.70;69.84;100138.91;1764124;81;21063;-79
2021/12/22 07:56:06;;;;;;;25.12;10.58;;;;;;;-1.68;69.90;100132.20;1709420;83;21025;-79
2021/12/22 07:58:33;;;;;;;28.23;10.78;;;;;;;-1.59;69.66;100138.09;1730401;82;20951;-80
2021/12/22 08:01:00;;;;;;;28.02;10.85;;;;;;;-1.52;69.62;100143.89;1735714;82;21025;-79
2021/12/22 08:03:26;;;;;;;18.12;8.58;;;;;;;-1.46;69.33;100140.30;1764719;80;21649;-79
2021/12/22 08:05:53;;;;;;;20.00;9.05;;;;;;;-1.39;69.08;100135.06;1755857;81;21018;-79
2021/12/22 08:08:20;;;;;;;15.80;6.83;;;;;;;-1.36;68.63;100143.23;1753524;81;21126;-80
2021/12/22 08:10:47;;;;;;;15.88;6.95;;;;;;;-1.36;68.43;100155.58;1759023;81;20986;-83
2021/12/22 08:13:15;;;;;;;14.43;6.30;;;;;;;-1.39;68.42;100150.37;1760407;81;20982;-82
2021/12/22 08:15:44;;;;;;;20.55;8.08;;;;;;;-1.39;68.52;100151.64;1761727;82;20998;-84
2021/12/22 08:18:10;;;;;;;21.73;7.40;;;;;;;-1.33;68.64;100148.44;1761256;82;20983;-84
2021/12/22 08:20:39;;;;;;;18.77;8.83;;;;;;;-1.20;68.66;100153.22;1759780;82;21013;-87
2021/12/22 08:23:06;;;;;;;19.73;8.18;;;;;;;-1.10;68.54;100148.94;1759790;82;20979;-85
2021/12/22 08:25:33;;;;;;;19.02;8.38;;;;;;;-1.00;68.54;100151.44;1761572;81;21093;-78
2021/12/22 08:28:02;;;;;;;19.92;9.00;;;;;;;-0.91;68.10;100160.73;1754728;82;21046;-77
2021/12/22 08:30:28;;;;;;;40.08;16.55;;;;;;;-0.85;67.85;100161.38;1751518;80;20944;-76
2021/12/22 08:32:59;;;;;;;17.23;8.63;;;;;;;-0.70;68.22;100164.90;1752849;82;21703;-74
2021/12/22 08:35:28;;;;;;;19.37;8.88;;;;;;;-0.61;67.22;100169.94;1748546;80;21051;-76
2021/12/22 08:40:40;;;;;;;17.75;7.72;;;;;;;-0.56;66.47;100173.07;1750426;80;21017;-77
2021/12/22 08:43:06;;;;;;;19.45;8.45;;;;;;;-0.57;64.94;100177.73;1752697;81;21624;-75
2021/12/22 08:45:33;;;;;;;17.45;7.12;;;;;;;-0.50;66.31;100173.30;1749321;80;21010;-76
2021/12/22 08:48:00;;;;;;;18.90;8.08;;;;;;;-0.57;64.62;100182.42;1752066;82;21073;-78
2021/12/22 08:50:27;;;;;;;15.63;6.97;;;;;;;-0.56;65.34;100184.56;1747228;82;20962;-79
2021/12/22 08:52:55;;;;;;;18.82;8.93;;;;;;;-0.51;65.26;100189.45;1755738;81;21010;-77
2021/12/22 08:55:22;;;;;;;16.12;7.00;;;;;;;-0.53;64.76;100185.55;1711819;83;21045;-78
2021/12/22 08:57:48;;;;;;;17.95;7.55;;;;;;;-0.47;64.62;100183.64;1751987;82;21022;-78
2021/12/22 09:00:15;;;;;;;16.35;6.08;;;;;;;-0.38;64.78;100183.95;1750067;81;20977;-78
2021/12/22 09:02:44;;;;;;;18.12;8.40;;;;;;;-0.45;64.86;100182.87;1753134;80;21014;-76
2021/12/22 09:05:10;;;;;;;21.65;8.33;;;;;;;-0.42;64.95;100180.44;1753028;80;21046;-78
2021/12/22 09:07:37;;;;;;;23.10;7.33;;;;;;;-0.35;64.93;100179.39;1753270;80;21562;-76
2021/12/22 09:10:05;;;;;;;15.70;8.10;;;;;;;-0.36;64.60;100175.94;1753162;82;21050;-77
2021/12/22 09:12:31;;;;;;;12.40;6.03;;;;;;;-0.25;65.09;100178.48;1752554;81;21015;-77
2021/12/22 09:14:58;;;;;;;18.90;8.75;;;;;;;-0.37;64.26;100174.21;1755960;81;21014;-76
2021/12/22 09:17:24;;;;;;;15.90;7.55;;;;;;;-0.30;63.76;100182.95;1751250;82;21163;-79
2021/12/22 09:19:54;;;;;;;17.10;5.67;;;;;;;-0.28;64.05;100177.49;1752996;82;20950;-78
2021/12/22 09:22:23;;;;;;;20.55;8.03;;;;;;;-0.28;63.69;100170.72;1753001;82;21089;-75
2021/12/22 09:24:50;;;;;;;22.13;6.85;;;;;;;-0.24;62.94;100166.18;1756369;81;21001;-75
2021/12/22 09:27:16;;;;;;;17.77;7.55;;;;;;;-0.18;62.65;100164.64;1754020;81;20995;-78
2021/12/22 09:29:43;;;;;;;17.90;7.33;;;;;;;-0.05;63.02;100161.70;1755201;80;21010;-78
2021/12/22 09:32:15;;;;;;;15.20;7.17;;;;;;;0.12;64.03;100165.72;1752996;82;21046;-76
2021/12/22 09:34:43;;;;;;;20.17;8.15;;;;;;;0.14;62.42;100167.92;1750674;81;21070;-77
2021/12/22 09:37:09;;;;;;;16.73;7.17;;;;;;;0.29;62.85;100163.71;1753161;81;21061;-76
2021/12/22 09:39:36;;;;;;;20.88;8.25;;;;;;;0.41;63.96;100171.34;1750373;82;21001;-77
2021/12/22 09:42:04;;;;;;;14.15;7.28;;;;;;;0.41;62.50;100170.92;1751673;81;21011;-77
2021/12/22 09:44:37;;;;;;;16.17;7.30;;;;;;;0.41;62.87;100168.36;1721852;83;21022;-80
2021/12/22 09:47:02;;;;;;;18.65;7.85;;;;;;;0.44;62.52;100172.32;1718933;82;21525;-79
2021/12/22 09:52:21;;;;;;;34.83;13.53;;;;;;;0.58;62.42;100170.21;1719613;82;21096;-77
2021/12/22 09:54:56;;;;;;;32.20;11.83;;;;;;;0.53;60.59;100175.58;1719869;82;21595;-79
2021/12/22 09:57:24;;;;;;;41.40;11.53;;;;;;;0.53;60.32;100164.06;1718617;82;21407;-79
2021/12/22 09:59:54;;;;;;;18.87;7.40;;;;;;;0.52;60.95;100164.90;1719128;82;21023;-80
2021/12/22 10:02:25;;;;;;;20.43;8.05;;;;;;;0.54;60.81;100160.70;1718649;82;21012;-79
2021/12/22 10:04:52;;;;;;;15.08;6.30;;;;;;;0.55;60.85;100159.44;1718106;82;21025;-79
2021/12/22 10:07:26;;;;;;;24.45;8.20;;;;;;;0.55;60.14;100164.98;1674583;84;21023;-78
2021/12/22 10:09:48;;;;;;;25.68;8.38;;;;;;;0.53;61.15;100166.62;1716366;82;20978;-79
2021/12/22 10:12:25;;;;;;;21.42;8.00;;;;;;;0.43;59.80;100171.84;1670114;84;21060;-78
2021/12/22 10:14:59;;;;;;;19.90;7.67;;;;;;;0.40;61.40;100174.32;1719801;83;20984;-78
2021/12/22 10:17:39;;;;;;;22.40;7.42;;;;;;;0.24;61.66;100169.48;1674987;84;21039;-79
2021/12/22 10:20:11;;;;;;;22.37;8.63;;;;;;;0.16;62.20;100176.51;1721939;83;21024;-83
2021/12/22 10:22:45;;;;;;;;;;;;;;;-0.06;62.93;100174.91;1680404;84;21009;-79
2021/12/22 10:25:16;;;;;;;23.22;7.50;;;;;;;-0.05;62.79;100170.66;1726002;82;20220;-79
2021/12/22 10:27:53;;;;;;;20.43;5.95;;;;;;;-0.16;62.53;100171.95;1720317;82;21037;-80
2021/12/22 10:30:30;;;;;;;14.98;5.65;;;;;;;-0.19;62.81;100173.14;1671599;84;21054;-77
2021/12/22 10:33:19;;;;;;;20.30;7.87;;;;;;;-0.30;63.10;100165.07;1679137;84;21133;-79
2021/12/22 10:36:01;;;;;;;20.02;6.12;;;;;;;-0.42;63.95;100163.84;1720801;82;21071;-78
2021/12/22 10:38:32;;;;;;;20.25;7.80;;;;;;;-0.49;64.49;100163.55;1702519;83;21494;-79
2021/12/22 10:41:06;;;;;;;19.17;7.12;;;;;;;-0.50;65.35;100158.83;1702121;83;21028;-79
2021/12/22 10:43:40;;;;;;;17.73;6.90;;;;;;;-0.40;64.99;100157.48;1737281;81;21076;-79
2021/12/22 10:46:15;;;;;;;15.65;7.30;;;;;;;-0.50;66.29;100157.97;1754398;82;21011;-79
2021/12/22 10:51:31;;;;;;;14.13;5.78;;;;;;;-0.49;66.32;100152.92;1752251;82;21009;-78
2021/12/22 10:54:00;;;;;;;20.97;8.60;;;;;;;-0.53;66.15;100147.23;1746329;80;21033;-79
2021/12/22 10:56:34;;;;;;;17.20;7.30;;;;;;;-0.53;66.78;100154.04;1756162;82;20951;-81
2021/12/22 10:59:18;;;;;;;18.35;6.15;;;;;;;-0.46;66.04;100151.77;1755248;80;20990;-79
2021/12/22 11:01:58;;;;;;;11.38;4.83;;;;;;;-0.57;66.41;100154.75;1750754;80;21018;-79
2021/12/22 11:04:32;;;;;;;13.93;5.60;;;;;;;-0.48;66.19;100155.06;1751150;80;21058;-80
2021/12/22 11:07:21;;;;;;;10.55;5.03;;;;;;;-0.43;65.63;100149.31;1755626;81;20935;-79
2021/12/22 11:09:43;;;;;;;15.38;5.45;;;;;;;-0.39;65.30;100161.79;1753438;80;21009;-79
2021/12/22 11:12:14;;;;;;;9.80;5.08;;;;;;;-0.38;65.65;100149.88;1733601;81;20962;-80
2021/12/22 11:14:44;;;;;;;9.30;4.35;;;;;;;-0.41;65.84;100158.31;1760776;81;21382;-79
2021/12/22 11:17:14;;;;;;;9.40;4.62;;;;;;;-0.37;65.47;100155.47;1703888;83;21061;-80
2021/12/22 11:19:58;;;;;;;12.15;4.75;;;;;;;-0.38;65.70;100158.41;1706888;82;21042;-78
2021/12/22 11:23:01;;;;;;;10.38;4.92;;;;;;;-0.53;65.80;100152.77;1751419;82;21028;-80
2021/12/22 11:25:29;;;;;;;12.25;5.05;;;;;;;-0.57;65.65;100153.47;1733897;81;20997;-80
2021/12/22 11:27:58;;;;;;;16.82;6.15;;;;;;;-0.70;66.48;100158.09;1703839;83;21045;-79
2021/12/22 11:30:28;;;;;;;18.10;6.03;;;;;;;-0.68;66.45;100164.55;1737399;81;21054;-79
2021/12/22 11:39:08;;;;;;;11.38;3.92;;;;;;;-0.73;63.57;100151.62;1797305;78;22390;-80
2021/12/22 11:41:43;;;;;;;11.88;4.22;;;;;;;-0.93;63.70;100144.91;1773597;78;21261;-82
2021/12/22 11:44:04;;;;;;;12.88;4.72;;;;;;;-1.06;63.12;100146.09;1779493;77;20975;-85
2021/12/22 11:49:11;;;;;;;10.10;4.10;;;;;;;-1.14;63.66;100147.08;1793483;76;20992;-85
2021/12/22 11:51:38;;;;;;;6.85;3.08;;;;;;;-1.12;64.38;100141.63;1766027;79;20994;-81
2021/12/22 11:54:09;;;;;;;6.60;3.60;;;;;;;-1.25;61.70;100140.30;1752240;80;20994;-81
2021/12/22 11:56:50;;;;;;;15.68;4.65;;;;;;;-1.21;61.75;100140.88;1785157;76;21187;-84